Time;durP1;ratioP1;P1;durP2;ratioP2;P2;SDS_P1;SDS_P2;PMS_P1;PMS_P2;Temp;Humidity;BMP_temperature;BMP_pressure;BME280_temperature;BME280_humidity;BME280_pressure;Samples;Min_cycle;Max_cycle;Signal;HPM_P1;HPM_P2
2022/02/20 00:00:41;;;;;;;;;0.00;0.00;;;;;;;;5060635;28;45331;-69
2022/02/20 00:03:07;;;;;;;;;1.00;1.00;;;;;;;;5074397;27;46298;-69
2022/02/20 00:05:32;;;;;;;;;2.00;0.00;;;;;;;;5076993;27;45317;-70
2022/02/20 00:07:57;;;;;;;;;1.25;0.00;;;;;;;;5085786;27;45390;-70
2022/02/20 00:10:23;;;;;;;;;0.00;0.00;;;;;;;;5075461;28;45280;-69
2022/02/20 00:12:48;;;;;;;;;0.00;0.00;;;;;;;;5088337;27;45970;-69
2022/02/20 00:15:13;;;;;;;;;2.75;0.00;;;;;;;;5079448;27;45444;-69
2022/02/20 00:17:39;;;;;;;;;0.25;0.25;;;;;;;;5079423;27;45231;-69
2022/02/20 00:20:04;;;;;;;;;0.00;0.00;;;;;;;;5075322;28;45463;-69
2022/02/20 00:22:30;;;;;;;;;0.25;0.00;;;;;;;;5075114;28;46219;-69
2022/02/20 00:24:56;;;;;;;;;0.50;0.00;;;;;;;;5075061;28;45679;-70
2022/02/20 00:27:22;;;;;;;;;0.50;0.00;;;;;;;;5076136;28;45441;-69
2022/02/20 00:29:47;;;;;;;;;0.67;0.67;;;;;;;;5074666;28;45513;-70
2022/02/20 00:32:12;;;;;;;;;1.25;0.00;;;;;;;;5075303;27;45422;-69
2022/02/20 00:34:37;;;;;;;;;0.00;0.00;;;;;;;;5074877;28;45442;-69
2022/02/20 00:37:03;;;;;;;;;1.00;1.00;;;;;;;;5074835;28;45462;-69
2022/02/20 00:39:31;;;;;;;;;1.00;0.00;;;;;;;;5078398;27;45353;-69
2022/02/20 00:41:56;;;;;;;;;1.25;1.00;;;;;;;;5074881;28;46211;-69
2022/02/20 00:44:21;;;;;;;;;1.00;0.00;;;;;;;;5074769;28;45583;-69
2022/02/20 00:46:47;;;;;;;;;1.25;0.75;;;;;;;;5074872;27;45585;-69
2022/02/20 00:49:12;;;;;;;;;1.50;0.00;;;;;;;;5075077;27;45340;-69
2022/02/20 00:51:38;;;;;;;;;0.75;0.00;;;;;;;;5082540;27;45525;-69
2022/02/20 00:54:04;;;;;;;;;1.33;0.00;;;;;;;;5077094;27;45378;-70
2022/02/20 00:56:30;;;;;;;;;0.25;0.25;;;;;;;;5079979;27;45367;-69
2022/02/20 00:58:55;;;;;;;;;0.25;0.00;;;;;;;;5074645;28;45524;-70
2022/02/20 01:01:20;;;;;;;;;1.25;0.50;;;;;;;;5074611;27;45354;-69
2022/02/20 01:03:45;;;;;;;;;0.75;0.00;;;;;;;;5075445;28;45450;-69
2022/02/20 01:06:11;;;;;;;;;2.00;0.25;;;;;;;;5075326;28;45388;-69
2022/02/20 01:08:36;;;;;;;;;0.00;0.00;;;;;;;;5077800;28;45422;-69
2022/02/20 01:11:01;;;;;;;;;0.00;0.00;;;;;;;;5078194;27;45585;-69
2022/02/20 01:13:27;;;;;;;;;0.00;0.00;;;;;;;;5078641;28;45413;-70
2022/02/20 01:15:52;;;;;;;;;0.75;0.00;;;;;;;;5079296;27;45331;-69
2022/02/20 01:18:17;;;;;;;;;1.00;1.00;;;;;;;;5078810;27;45522;-69
2022/02/20 01:20:42;;;;;;;;;2.25;1.00;;;;;;;;5077643;27;46316;-69
2022/02/20 01:23:07;;;;;;;;;2.00;0.00;;;;;;;;5077499;28;45420;-69
2022/02/20 01:25:33;;;;;;;;;2.75;0.00;;;;;;;;5077989;28;45486;-69
2022/02/20 01:27:58;;;;;;;;;0.00;0.00;;;;;;;;5078105;28;45433;-70
2022/02/20 01:30:23;;;;;;;;;0.25;0.00;;;;;;;;5073747;28;45800;-69
2022/02/20 01:32:48;;;;;;;;;0.50;0.00;;;;;;;;5077656;28;45524;-69
2022/02/20 01:35:15;;;;;;;;;0.00;0.00;;;;;;;;5079756;27;45504;-69
2022/02/20 01:37:40;;;;;;;;;0.00;0.00;;;;;;;;5079387;27;45290;-69
2022/02/20 01:40:06;;;;;;;;;1.00;1.00;;;;;;;;5078946;27;45328;-69
2022/02/20 01:42:33;;;;;;;;;0.75;0.75;;;;;;;;5078624;28;45438;-69
2022/02/20 01:44:58;;;;;;;;;1.00;0.00;;;;;;;;5077063;28;45435;-69
2022/02/20 01:47:24;;;;;;;;;2.50;0.00;;;;;;;;5077740;27;45460;-69
2022/02/20 01:49:50;;;;;;;;;1.00;0.00;;;;;;;;5080415;27;46235;-68
2022/02/20 01:52:15;;;;;;;;;1.00;0.75;;;;;;;;5077313;28;45476;-69
2022/02/20 01:54:40;;;;;;;;;4.75;1.50;;;;;;;;5080576;27;45440;-69
2022/02/20 01:57:05;;;;;;;;;0.25;0.25;;;;;;;;5076888;27;45438;-69
2022/02/20 01:59:30;;;;;;;;;0.00;0.00;;;;;;;;5077337;28;46394;-69
2022/02/20 02:01:56;;;;;;;;;0.00;0.00;;;;;;;;5077663;27;45524;-69
2022/02/20 02:04:21;;;;;;;;;2.00;0.00;;;;;;;;5080933;27;45269;-69
2022/02/20 02:06:47;;;;;;;;;0.00;0.00;;;;;;;;5089618;27;45452;-69
2022/02/20 02:09:13;;;;;;;;;0.00;0.00;;;;;;;;5077125;27;47940;-69
2022/02/20 02:11:39;;;;;;;;;1.50;0.00;;;;;;;;5076717;28;45319;-69
2022/02/20 02:14:04;;;;;;;;;0.00;0.00;;;;;;;;5077560;27;46121;-69
2022/02/20 02:16:30;;;;;;;;;0.25;0.25;;;;;;;;5076605;28;45556;-68
2022/02/20 02:18:55;;;;;;;;;0.00;0.00;;;;;;;;5076149;28;46133;-69
2022/02/20 02:21:20;;;;;;;;;0.50;0.25;;;;;;;;5078032;27;45402;-69
2022/02/20 02:23:45;;;;;;;;;1.50;0.00;;;;;;;;5077004;28;45393;-69
2022/02/20 02:26:12;;;;;;;;;0.00;0.00;;;;;;;;5076945;28;45565;-69
2022/02/20 02:28:37;;;;;;;;;1.25;1.25;;;;;;;;5077075;28;47212;-69
2022/02/20 02:31:03;;;;;;;;;1.00;0.00;;;;;;;;5076609;28;45472;-69
2022/02/20 02:33:29;;;;;;;;;1.00;1.00;;;;;;;;5077597;28;45476;-69
2022/02/20 02:35:54;;;;;;;;;1.75;1.50;;;;;;;;5076839;28;45454;-70
2022/02/20 02:38:25;;;;;;;;;0.00;0.00;;;;;;;;5071823;28;45985;-69
2022/02/20 02:40:50;;;;;;;;;0.00;0.00;;;;;;;;5065227;28;45424;-69
2022/02/20 02:43:15;;;;;;;;;4.75;0.00;;;;;;;;5088152;27;45269;-69
2022/02/20 02:45:41;;;;;;;;;0.50;0.00;;;;;;;;5078933;27;45196;-69
2022/02/20 02:48:06;;;;;;;;;1.00;1.00;;;;;;;;5076931;27;46275;-69
2022/02/20 02:50:31;;;;;;;;;2.00;0.00;;;;;;;;5076749;27;45383;-69
2022/02/20 02:52:56;;;;;;;;;0.00;0.00;;;;;;;;5077273;27;45383;-69
2022/02/20 02:55:21;;;;;;;;;1.00;0.00;;;;;;;;5076252;27;45523;-69
2022/02/20 02:57:46;;;;;;;;;3.00;0.00;;;;;;;;5077563;28;46977;-69
2022/02/20 03:00:12;;;;;;;;;1.00;1.00;;;;;;;;5075842;28;45313;-69
2022/02/20 03:02:37;;;;;;;;;0.00;0.00;;;;;;;;5075341;27;45475;-69
2022/02/20 03:05:04;;;;;;;;;1.00;0.00;;;;;;;;5076241;28;45397;-69
2022/02/20 03:07:29;;;;;;;;;3.25;1.00;;;;;;;;5078997;27;45523;-69
2022/02/20 03:09:54;;;;;;;;;0.00;0.00;;;;;;;;5076610;27;45321;-69
2022/02/20 03:12:20;;;;;;;;;1.25;1.00;;;;;;;;5077761;27;45657;-69
2022/02/20 03:14:45;;;;;;;;;2.00;0.00;;;;;;;;5076271;28;45989;-69
2022/02/20 03:17:10;;;;;;;;;1.00;1.00;;;;;;;;5075429;27;46312;-69
2022/02/20 03:19:35;;;;;;;;;0.50;0.50;;;;;;;;5076574;28;45429;-69
2022/02/20 03:22:01;;;;;;;;;1.25;0.75;;;;;;;;5084396;27;45245;-70
2022/02/20 03:24:26;;;;;;;;;0.50;0.50;;;;;;;;5077120;27;45336;-70
2022/02/20 03:26:51;;;;;;;;;0.75;0.75;;;;;;;;5075464;28;46097;-69
2022/02/20 03:29:16;;;;;;;;;0.00;0.00;;;;;;;;5074887;27;45464;-69
2022/02/20 03:31:42;;;;;;;;;0.50;0.50;;;;;;;;5076053;28;45339;-69
2022/02/20 03:34:07;;;;;;;;;0.00;0.00;;;;;;;;5076322;28;45340;-69
2022/02/20 03:36:32;;;;;;;;;0.00;0.00;;;;;;;;5076805;28;46230;-69
2022/02/20 03:38:58;;;;;;;;;0.25;0.25;;;;;;;;5074457;28;45373;-69
2022/02/20 03:41:23;;;;;;;;;1.75;1.00;;;;;;;;5076026;28;45456;-69
2022/02/20 03:43:48;;;;;;;;;0.00;0.00;;;;;;;;5075689;27;45279;-69
2022/02/20 03:46:13;;;;;;;;;2.00;1.25;;;;;;;;5083194;27;46300;-69
2022/02/20 03:48:38;;;;;;;;;0.25;0.25;;;;;;;;5076613;28;45342;-69
2022/02/20 03:51:05;;;;;;;;;0.00;0.00;;;;;;;;5076987;27;45654;-69
2022/02/20 03:53:30;;;;;;;;;2.00;0.00;;;;;;;;5065909;28;45814;-69
2022/02/20 03:55:55;;;;;;;;;0.25;0.25;;;;;;;;5064352;28;46607;-70
2022/02/20 03:58:21;;;;;;;;;1.75;1.00;;;;;;;;5082945;27;45505;-69
2022/02/20 04:00:46;;;;;;;;;0.50;0.00;;;;;;;;5076260;28;45481;-69
2022/02/20 04:03:11;;;;;;;;;0.00;0.00;;;;;;;;5075692;27;45340;-69
2022/02/20 04:05:36;;;;;;;;;2.00;1.00;;;;;;;;5075050;28;46213;-69
2022/02/20 04:08:01;;;;;;;;;0.50;0.00;;;;;;;;5075339;27;45277;-69
2022/02/20 04:10:27;;;;;;;;;0.50;0.00;;;;;;;;5073910;28;45426;-69
2022/02/20 04:12:52;;;;;;;;;1.00;1.00;;;;;;;;5072592;28;45416;-69
2022/02/20 04:15:18;;;;;;;;;0.50;0.00;;;;;;;;5075805;28;46127;-69
2022/02/20 04:17:44;;;;;;;;;0.00;0.00;;;;;;;;5075323;27;45552;-69
2022/02/20 04:20:12;;;;;;;;;1.25;0.25;;;;;;;;5075138;27;45444;-69
2022/02/20 04:22:37;;;;;;;;;1.50;0.00;;;;;;;;5074877;28;45482;-69
2022/02/20 04:25:02;;;;;;;;;0.00;0.00;;;;;;;;5075011;28;46197;-69
2022/02/20 04:27:28;;;;;;;;;1.00;0.00;;;;;;;;5074005;28;45386;-69
2022/02/20 04:29:53;;;;;;;;;0.00;0.00;;;;;;;;5080501;27;45350;-69
2022/02/20 04:32:18;;;;;;;;;2.25;1.00;;;;;;;;5082513;27;45357;-69
2022/02/20 04:34:43;;;;;;;;;1.00;0.50;;;;;;;;5082729;27;46236;-69
2022/02/20 04:37:08;;;;;;;;;1.00;0.00;;;;;;;;5074921;28;45614;-69
2022/02/20 04:39:34;;;;;;;;;2.00;1.00;;;;;;;;5078520;27;45282;-69
2022/02/20 04:41:59;;;;;;;;;0.75;0.00;;;;;;;;5069036;27;45503;-69
2022/02/20 04:44:24;;;;;;;;;1.00;1.00;;;;;;;;5067595;28;45428;-69
2022/02/20 04:46:50;;;;;;;;;0.00;0.00;;;;;;;;5074808;28;45315;-70
2022/02/20 04:49:15;;;;;;;;;1.00;0.00;;;;;;;;5087383;27;45284;-69
2022/02/20 04:51:40;;;;;;;;;0.25;0.00;;;;;;;;5075938;28;45417;-69
2022/02/20 04:54:05;;;;;;;;;2.25;0.00;;;;;;;;5077726;27;47044;-69
2022/02/20 04:56:31;;;;;;;;;2.75;1.00;;;;;;;;5074406;28;45441;-69
2022/02/20 04:58:56;;;;;;;;;1.25;0.25;;;;;;;;5074386;28;45559;-69
2022/02/20 05:01:22;;;;;;;;;0.75;0.00;;;;;;;;5075121;28;45359;-69
2022/02/20 05:03:47;;;;;;;;;1.25;1.00;;;;;;;;5078575;27;46322;-69
2022/02/20 05:06:13;;;;;;;;;0.75;0.75;;;;;;;;5074107;27;48582;-69
2022/02/20 05:08:38;;;;;;;;;0.50;0.00;;;;;;;;5074377;28;45451;-69
2022/02/20 05:11:03;;;;;;;;;0.00;0.00;;;;;;;;5074437;28;45437;-68
2022/02/20 05:13:29;;;;;;;;;1.00;0.00;;;;;;;;5074280;28;45420;-69
2022/02/20 05:15:54;;;;;;;;;0.25;0.25;;;;;;;;5074873;28;45340;-69
2022/02/20 05:18:19;;;;;;;;;2.00;1.00;;;;;;;;5075303;28;45313;-69
2022/02/20 05:20:46;;;;;;;;;0.00;0.00;;;;;;;;5074416;28;45424;-69
2022/02/20 05:23:11;;;;;;;;;0.75;0.00;;;;;;;;5071450;27;47141;-69
2022/02/20 05:25:36;;;;;;;;;0.25;0.25;;;;;;;;5074022;27;45459;-69
2022/02/20 05:28:02;;;;;;;;;0.25;0.00;;;;;;;;5073944;28;45390;-69
2022/02/20 05:30:27;;;;;;;;;0.00;0.00;;;;;;;;5075210;27;45458;-69
2022/02/20 05:32:52;;;;;;;;;1.75;1.00;;;;;;;;5074196;27;46249;-69
2022/02/20 05:35:17;;;;;;;;;0.50;0.25;;;;;;;;5082193;27;45254;-69
2022/02/20 05:37:44;;;;;;;;;2.00;1.50;;;;;;;;5074177;28;46298;-70
2022/02/20 05:40:10;;;;;;;;;0.00;0.00;;;;;;;;5074452;28;45296;-69
2022/02/20 05:42:35;;;;;;;;;0.00;0.00;;;;;;;;5069016;28;46313;-69
2022/02/20 05:45:01;;;;;;;;;0.00;0.00;;;;;;;;5075029;27;45307;-69
2022/02/20 05:47:26;;;;;;;;;0.75;0.50;;;;;;;;5080823;27;45574;-69
2022/02/20 05:49:51;;;;;;;;;3.25;1.00;;;;;;;;5073793;28;45432;-69
2022/02/20 05:52:16;;;;;;;;;2.00;0.00;;;;;;;;5084328;27;45898;-69
2022/02/20 05:54:41;;;;;;;;;3.25;2.25;;;;;;;;5078525;28;45326;-69
2022/02/20 05:57:07;;;;;;;;;2.00;2.00;;;;;;;;5076978;28;45408;-69
2022/02/20 05:59:32;;;;;;;;;0.00;0.00;;;;;;;;5077481;28;45354;-69
2022/02/20 06:01:57;;;;;;;;;1.50;0.50;;;;;;;;5076416;28;48140;-69
2022/02/20 06:04:22;;;;;;;;;0.00;0.00;;;;;;;;5077355;28;45506;-69
2022/02/20 06:06:47;;;;;;;;;0.50;0.50;;;;;;;;5088546;27;45624;-69
2022/02/20 06:09:13;;;;;;;;;1.50;0.25;;;;;;;;5077413;27;45475;-69
2022/02/20 06:11:38;;;;;;;;;1.00;1.00;;;;;;;;5076249;27;46092;-69
2022/02/20 06:14:03;;;;;;;;;0.25;0.25;;;;;;;;5076681;28;45432;-69
2022/02/20 06:16:29;;;;;;;;;0.00;0.00;;;;;;;;5077555;28;45429;-69
2022/02/20 06:18:54;;;;;;;;;2.00;0.00;;;;;;;;5077615;27;45527;-69
2022/02/20 06:21:19;;;;;;;;;3.25;0.00;;;;;;;;5089828;27;46173;-69
2022/02/20 06:23:44;;;;;;;;;0.00;0.00;;;;;;;;5080868;27;45379;-69
2022/02/20 06:26:09;;;;;;;;;0.25;0.00;;;;;;;;5076278;28;45562;-69
2022/02/20 06:28:35;;;;;;;;;1.00;0.00;;;;;;;;5077001;28;45479;-69
2022/02/20 06:31:00;;;;;;;;;0.00;0.00;;;;;;;;5060586;27;46149;-69
2022/02/20 06:33:25;;;;;;;;;0.00;0.00;;;;;;;;5082612;27;45499;-69
2022/02/20 06:35:50;;;;;;;;;0.50;0.50;;;;;;;;5079896;27;45331;-69
2022/02/20 06:38:16;;;;;;;;;0.00;0.00;;;;;;;;5079141;27;45468;-69
2022/02/20 06:40:41;;;;;;;;;1.50;0.00;;;;;;;;5076769;28;45307;-69
2022/02/20 06:43:06;;;;;;;;;1.25;0.00;;;;;;;;5076603;27;45849;-69
2022/02/20 06:45:31;;;;;;;;;2.50;0.00;;;;;;;;5077833;28;45315;-69
2022/02/20 06:47:56;;;;;;;;;2.00;0.00;;;;;;;;5076452;28;45464;-69
2022/02/20 06:50:22;;;;;;;;;0.00;0.00;;;;;;;;5076064;28;46063;-69
2022/02/20 06:52:47;;;;;;;;;1.25;1.00;;;;;;;;5076533;28;45493;-69
2022/02/20 06:55:12;;;;;;;;;2.75;1.00;;;;;;;;5091560;27;45710;-69
2022/02/20 06:57:38;;;;;;;;;0.00;0.00;;;;;;;;5080771;27;45372;-69
2022/02/20 07:00:06;;;;;;;;;2.00;1.00;;;;;;;;5076779;27;45325;-69
2022/02/20 07:02:32;;;;;;;;;0.50;0.00;;;;;;;;5075052;27;45401;-68
2022/02/20 07:04:57;;;;;;;;;0.00;0.00;;;;;;;;5076083;27;45356;-69
2022/02/20 07:07:22;;;;;;;;;2.00;1.00;;;;;;;;5076335;28;45381;-69
2022/02/20 07:09:47;;;;;;;;;0.00;0.00;;;;;;;;5060722;28;45486;-69
2022/02/20 07:12:12;;;;;;;;;0.50;0.00;;;;;;;;5076248;28;45333;-69
2022/02/20 07:14:38;;;;;;;;;3.00;0.00;;;;;;;;5076181;28;45246;-69
2022/02/20 07:17:03;;;;;;;;;1.50;1.00;;;;;;;;5076107;28;45416;-69
2022/02/20 07:19:28;;;;;;;;;1.50;0.75;;;;;;;;5076712;27;45467;-69
2022/02/20 07:21:53;;;;;;;;;0.50;0.25;;;;;;;;5076327;28;45252;-69
2022/02/20 07:24:19;;;;;;;;;1.00;1.00;;;;;;;;5064242;28;45292;-69
2022/02/20 07:26:44;;;;;;;;;0.50;0.50;;;;;;;;5072834;27;45469;-69
2022/02/20 07:29:09;;;;;;;;;2.00;0.00;;;;;;;;5076120;27;45402;-69
2022/02/20 07:31:35;;;;;;;;;0.00;0.00;;;;;;;;5075699;28;45326;-69
2022/02/20 07:34:00;;;;;;;;;0.50;0.50;;;;;;;;5076231;28;45324;-69
2022/02/20 07:36:25;;;;;;;;;0.75;0.75;;;;;;;;5076745;28;45494;-69
2022/02/20 07:38:50;;;;;;;;;2.00;0.00;;;;;;;;5075547;28;46188;-69
2022/02/20 07:41:16;;;;;;;;;0.00;0.00;;;;;;;;5075973;28;45338;-69
2022/02/20 07:43:44;;;;;;;;;0.25;0.00;;;;;;;;5086759;27;45647;-69
2022/02/20 07:46:09;;;;;;;;;1.00;1.00;;;;;;;;5075750;28;45361;-69
2022/02/20 07:48:34;;;;;;;;;0.75;0.00;;;;;;;;5076210;28;46295;-69
2022/02/20 07:50:59;;;;;;;;;0.25;0.25;;;;;;;;5076088;27;45301;-69
2022/02/20 07:53:26;;;;;;;;;0.75;0.75;;;;;;;;5081974;27;45586;-69
2022/02/20 07:55:51;;;;;;;;;2.00;0.00;;;;;;;;5075217;28;45397;-69
2022/02/20 07:58:19;;;;;;;;;2.00;0.00;;;;;;;;5059132;28;46162;-69
2022/02/20 08:00:44;;;;;;;;;0.25;0.25;;;;;;;;5076615;28;45476;-69
2022/02/20 08:03:10;;;;;;;;;2.00;1.00;;;;;;;;5075239;28;45513;-69
2022/02/20 08:05:35;;;;;;;;;0.00;0.00;;;;;;;;5075001;28;45516;-69
2022/02/20 08:08:00;;;;;;;;;1.25;1.00;;;;;;;;5075058;27;46029;-69
2022/02/20 08:10:25;;;;;;;;;2.00;0.25;;;;;;;;5074314;28;45615;-69
2022/02/20 08:12:51;;;;;;;;;0.25;0.25;;;;;;;;5068718;28;45525;-69
2022/02/20 08:15:16;;;;;;;;;2.25;0.50;;;;;;;;5069966;28;45481;-69
2022/02/20 08:17:43;;;;;;;;;1.00;1.00;;;;;;;;5075005;27;46353;-69
2022/02/20 08:20:08;;;;;;;;;0.00;0.00;;;;;;;;5075450;28;45445;-69
2022/02/20 08:22:33;;;;;;;;;0.25;0.25;;;;;;;;5075071;28;45685;-69
2022/02/20 08:24:58;;;;;;;;;2.00;0.00;;;;;;;;5086607;27;45370;-69
2022/02/20 08:27:24;;;;;;;;;2.00;0.00;;;;;;;;5076088;27;47021;-69
2022/02/20 08:29:49;;;;;;;;;1.25;0.00;;;;;;;;5078066;27;45283;-69
2022/02/20 08:32:14;;;;;;;;;3.25;0.00;;;;;;;;5083492;27;45491;-69
2022/02/20 08:34:39;;;;;;;;;0.00;0.00;;;;;;;;5083036;27;45296;-69
2022/02/20 08:37:05;;;;;;;;;0.00;0.00;;;;;;;;5074294;28;46322;-69
2022/02/20 08:39:30;;;;;;;;;0.50;0.00;;;;;;;;5076020;28;45327;-69
2022/02/20 08:41:56;;;;;;;;;0.00;0.00;;;;;;;;5065806;27;45481;-69
2022/02/20 08:44:22;;;;;;;;;0.50;0.00;;;;;;;;5067784;28;45379;-69
2022/02/20 08:46:47;;;;;;;;;0.75;0.75;;;;;;;;5074521;28;46014;-69
2022/02/20 08:49:12;;;;;;;;;0.00;0.00;;;;;;;;5074377;28;45405;-69
2022/02/20 08:51:37;;;;;;;;;0.25;0.00;;;;;;;;5075596;28;45492;-68
2022/02/20 08:54:02;;;;;;;;;2.50;1.25;;;;;;;;5074477;28;45341;-69
2022/02/20 08:56:28;;;;;;;;;0.00;0.00;;;;;;;;5074443;28;45453;-69
2022/02/20 08:58:53;;;;;;;;;0.00;0.00;;;;;;;;5074973;27;45433;-69
2022/02/20 09:01:19;;;;;;;;;0.67;0.00;;;;;;;;5074885;27;45346;-69
2022/02/20 09:03:44;;;;;;;;;2.00;1.00;;;;;;;;5075727;28;45592;-69
2022/02/20 09:06:09;;;;;;;;;0.33;0.00;;;;;;;;5074188;28;45374;-69
2022/02/20 09:08:35;;;;;;;;;0.00;0.00;;;;;;;;5073662;27;45482;-69
2022/02/20 09:11:00;;;;;;;;;1.00;0.00;;;;;;;;5074372;28;45441;-68
2022/02/20 09:13:25;;;;;;;;;0.00;0.00;;;;;;;;5074124;28;45307;-69
2022/02/20 09:15:51;;;;;;;;;0.00;0.00;;;;;;;;5074952;28;45291;-69
2022/02/20 09:18:16;;;;;;;;;1.50;0.00;;;;;;;;5074506;27;45409;-69
2022/02/20 09:20:41;;;;;;;;;1.00;1.00;;;;;;;;5074161;28;45380;-69
2022/02/20 09:23:06;;;;;;;;;2.50;0.75;;;;;;;;5082720;27;45484;-69
2022/02/20 09:25:32;;;;;;;;;1.00;0.00;;;;;;;;5076519;27;45436;-69
2022/02/20 09:27:57;;;;;;;;;2.75;0.00;;;;;;;;5077720;28;45374;-69
2022/02/20 09:30:22;;;;;;;;;0.00;0.00;;;;;;;;5078704;28;45459;-69
2022/02/20 09:32:48;;;;;;;;;3.25;0.00;;;;;;;;5077778;28;45481;-69
2022/02/20 09:35:13;;;;;;;;;0.00;0.00;;;;;;;;5077490;27;47139;-69
2022/02/20 09:37:39;;;;;;;;;0.50;0.00;;;;;;;;5077380;28;45443;-69
2022/02/20 09:40:05;;;;;;;;;0.00;0.00;;;;;;;;5061414;27;45595;-69
2022/02/20 09:42:30;;;;;;;;;3.00;1.00;;;;;;;;5086583;27;45500;-69
2022/02/20 09:44:55;;;;;;;;;0.00;0.00;;;;;;;;5080489;27;46006;-69
2022/02/20 09:47:28;;;;;;;;;0.00;0.00;;;;;;;;5085389;27;46277;-69
2022/02/20 09:49:58;;;;;;;;;1.00;1.00;;;;;;;;5077513;27;45461;-70
2022/02/20 09:52:24;;;;;;;;;0.75;0.25;;;;;;;;5077705;28;45327;-69
2022/02/20 09:54:49;;;;;;;;;0.50;0.25;;;;;;;;5078568;28;45293;-69
2022/02/20 09:57:14;;;;;;;;;0.00;0.00;;;;;;;;5077016;28;45418;-69
2022/02/20 09:59:39;;;;;;;;;1.75;0.25;;;;;;;;5077422;27;45342;-69
2022/02/20 10:02:05;;;;;;;;;0.50;0.25;;;;;;;;5077478;28;45460;-70
2022/02/20 10:04:43;;;;;;;;;0.75;0.75;;;;;;;;5076866;27;46269;-70
2022/02/20 10:07:23;;;;;;;;;1.00;0.75;;;;;;;;5089620;27;45372;-69
2022/02/20 10:09:48;;;;;;;;;0.00;0.00;;;;;;;;5074361;28;45370;-69
2022/02/20 10:12:21;;;;;;;;;0.75;0.00;;;;;;;;5076298;27;45589;-69
2022/02/20 10:14:46;;;;;;;;;0.00;0.00;;;;;;;;5076979;27;47299;-69
2022/02/20 10:17:13;;;;;;;;;0.00;0.00;;;;;;;;5076506;28;45345;-70
2022/02/20 10:19:51;;;;;;;;;1.00;1.00;;;;;;;;5077196;27;45329;-69
2022/02/20 10:22:24;;;;;;;;;3.00;0.75;;;;;;;;5077239;28;45200;-69
2022/02/20 10:25:00;;;;;;;;;1.75;1.50;;;;;;;;5073656;28;47113;-69
2022/02/20 10:27:25;;;;;;;;;2.00;1.00;;;;;;;;5077195;28;45422;-69
2022/02/20 10:30:08;;;;;;;;;1.25;1.25;;;;;;;;5076758;28;45352;-69
2022/02/20 10:32:34;;;;;;;;;1.75;1.00;;;;;;;;5071175;28;45468;-69
2022/02/20 10:35:09;;;;;;;;;0.75;0.00;;;;;;;;5076756;28;45682;-69
2022/02/20 10:37:34;;;;;;;;;0.25;0.25;;;;;;;;5078836;27;48084;-69
2022/02/20 10:40:00;;;;;;;;;0.00;0.00;;;;;;;;5077382;28;45290;-69
2022/02/20 10:42:26;;;;;;;;;2.25;0.75;;;;;;;;5077889;27;45457;-69
2022/02/20 10:45:00;;;;;;;;;0.67;0.00;;;;;;;;5076717;28;47017;-69
2022/02/20 10:47:26;;;;;;;;;1.00;0.00;;;;;;;;5076736;27;45398;-69
2022/02/20 10:49:51;;;;;;;;;1.00;0.00;;;;;;;;5076680;27;45426;-69
2022/02/20 10:52:24;;;;;;;;;0.00;0.00;;;;;;;;5076996;28;45496;-69
2022/02/20 10:55:02;;;;;;;;;0.67;0.67;;;;;;;;5073655;28;46914;-69
2022/02/20 10:57:35;;;;;;;;;0.00;0.00;;;;;;;;5076823;28;45243;-70
2022/02/20 11:00:13;;;;;;;;;1.50;0.00;;;;;;;;5076327;27;45329;-69
2022/02/20 11:02:39;;;;;;;;;0.00;0.00;;;;;;;;5075907;27;45754;-69
2022/02/20 11:05:04;;;;;;;;;2.00;0.00;;;;;;;;5076439;27;45854;-69
2022/02/20 11:07:29;;;;;;;;;0.00;0.00;;;;;;;;5076438;28;45374;-69
2022/02/20 11:09:55;;;;;;;;;0.00;0.00;;;;;;;;5076963;28;45375;-69
2022/02/20 11:12:21;;;;;;;;;3.00;1.00;;;;;;;;5076928;28;45328;-69
2022/02/20 11:14:46;;;;;;;;;0.67;0.00;;;;;;;;5075409;27;46044;-70
2022/02/20 11:17:12;;;;;;;;;0.25;0.00;;;;;;;;5075129;28;45375;-69
2022/02/20 11:19:38;;;;;;;;;0.25;0.25;;;;;;;;5076520;27;45295;-69
2022/02/20 11:22:04;;;;;;;;;0.50;0.50;;;;;;;;5060040;28;45456;-69
2022/02/20 11:24:30;;;;;;;;;0.25;0.25;;;;;;;;5076734;27;46357;-69
2022/02/20 11:26:55;;;;;;;;;3.00;1.00;;;;;;;;5078418;27;45565;-70
2022/02/20 11:29:21;;;;;;;;;1.00;0.00;;;;;;;;5076126;27;45387;-69
2022/02/20 11:31:47;;;;;;;;;2.00;1.00;;;;;;;;5076945;27;45619;-69
2022/02/20 11:34:13;;;;;;;;;1.50;0.50;;;;;;;;5076249;28;45678;-70
2022/02/20 11:36:48;;;;;;;;;2.00;0.00;;;;;;;;5076667;28;45456;-69
2022/02/20 11:39:14;;;;;;;;;0.50;0.00;;;;;;;;5076003;28;45647;-69
2022/02/20 11:41:41;;;;;;;;;0.75;0.00;;;;;;;;5068157;28;45524;-69
2022/02/20 11:44:13;;;;;;;;;0.00;0.00;;;;;;;;5066276;28;47298;-69
2022/02/20 11:46:49;;;;;;;;;0.50;0.50;;;;;;;;5075510;28;45316;-70
2022/02/20 11:49:26;;;;;;;;;1.25;1.00;;;;;;;;5074851;28;45511;-69
2022/02/20 11:51:55;;;;;;;;;0.67;0.67;;;;;;;;5072379;28;45408;-69
2022/02/20 11:54:21;;;;;;;;;1.00;1.00;;;;;;;;5074452;28;46837;-68
2022/02/20 11:57:05;;;;;;;;;2.33;1.00;;;;;;;;5074880;27;45244;-69
2022/02/20 11:59:31;;;;;;;;;1.75;0.00;;;;;;;;5073455;28;45421;-69
2022/02/20 12:02:14;;;;;;;;;1.00;1.00;;;;;;;;5075519;27;45442;-70
2022/02/20 12:04:51;;;;;;;;;2.00;0.00;;;;;;;;5075178;27;46350;-69
2022/02/20 12:07:35;;;;;;;;;2.00;1.33;;;;;;;;5057572;28;45240;-69
2022/02/20 12:10:27;;;;;;;;;1.00;1.00;;;;;;;;5087386;27;45358;-69
2022/02/20 12:13:19;;;;;;;;;0.67;0.67;;;;;;;;5081675;27;45402;-69
2022/02/20 12:15:44;;;;;;;;;0.75;0.00;;;;;;;;5013580;28;45955;-69
2022/02/20 12:18:09;;;;;;;;;0.75;0.75;;;;;;;;5012954;28;45558;-68
2022/02/20 12:20:46;;;;;;;;;2.00;0.00;;;;;;;;5014205;28;45537;-69
2022/02/20 12:23:24;;;;;;;;;1.00;1.00;;;;;;;;5009904;28;45479;-68
2022/02/20 12:25:49;;;;;;;;;1.50;0.50;;;;;;;;5000725;28;46193;-69
2022/02/20 12:28:15;;;;;;;;;0.67;0.67;;;;;;;;5012546;28;45366;-69
2022/02/20 12:30:40;;;;;;;;;0.67;0.33;;;;;;;;5009500;28;45496;-69
2022/02/20 12:33:05;;;;;;;;;3.50;1.25;;;;;;;;5012662;28;45763;-69
2022/02/20 12:35:30;;;;;;;;;2.25;0.25;;;;;;;;5008766;28;45624;-69
2022/02/20 12:37:56;;;;;;;;;0.33;0.33;;;;;;;;5012523;28;45375;-69
2022/02/20 12:40:29;;;;;;;;;1.75;0.50;;;;;;;;5012932;28;45526;-69
2022/02/20 12:43:03;;;;;;;;;1.25;1.00;;;;;;;;4996690;28;45531;-69
2022/02/20 12:45:29;;;;;;;;;1.00;1.00;;;;;;;;5015384;28;46166;-69
2022/02/20 12:47:55;;;;;;;;;0.00;0.00;;;;;;;;5013061;28;45380;-69
2022/02/20 12:50:22;;;;;;;;;0.00;0.00;;;;;;;;5013274;28;45507;-69
2022/02/20 12:52:47;;;;;;;;;2.00;0.00;;;;;;;;5045716;28;45451;-69
2022/02/20 12:55:15;;;;;;;;;3.25;0.00;;;;;;;;5074579;27;46801;-69
2022/02/20 12:57:40;;;;;;;;;1.50;0.00;;;;;;;;5075414;28;45414;-68
2022/02/20 13:00:07;;;;;;;;;4.00;1.00;;;;;;;;5074871;28;45331;-69
2022/02/20 13:02:42;;;;;;;;;2.00;0.00;;;;;;;;5078009;28;45331;-68
2022/02/20 13:05:12;;;;;;;;;1.00;0.00;;;;;;;;5077868;28;46262;-69
2022/02/20 13:07:40;;;;;;;;;0.50;0.50;;;;;;;;5079780;27;45293;-69
2022/02/20 13:10:06;;;;;;;;;0.00;0.00;;;;;;;;5078214;28;45331;-69
2022/02/20 13:12:31;;;;;;;;;0.00;0.00;;;;;;;;5078716;28;45437;-69
2022/02/20 13:15:00;;;;;;;;;2.25;0.75;;;;;;;;5077896;28;46163;-69
2022/02/20 13:17:44;;;;;;;;;1.67;0.33;;;;;;;;5077764;28;45558;-68
2022/02/20 13:20:25;;;;;;;;;1.75;1.75;;;;;;;;5078137;27;45615;-69
2022/02/20 13:22:50;;;;;;;;;1.00;0.75;;;;;;;;5077734;28;45837;-69
2022/02/20 13:25:17;;;;;;;;;1.00;1.00;;;;;;;;5078274;28;45444;-69
2022/02/20 13:27:43;;;;;;;;;1.00;0.00;;;;;;;;5078349;28;45467;-68
2022/02/20 13:30:09;;;;;;;;;0.00;0.00;;;;;;;;5081455;27;45350;-69
2022/02/20 13:32:34;;;;;;;;;0.75;0.00;;;;;;;;5083398;27;45520;-69
2022/02/20 13:35:02;;;;;;;;;0.00;0.00;;;;;;;;5085807;27;46276;-69
2022/02/20 13:37:28;;;;;;;;;0.75;0.25;;;;;;;;5078238;28;45287;-69
2022/02/20 13:39:54;;;;;;;;;2.75;0.00;;;;;;;;5079705;27;45581;-68
2022/02/20 13:42:19;;;;;;;;;2.75;1.75;;;;;;;;5077678;27;45422;-69
2022/02/20 13:44:44;;;;;;;;;1.50;0.00;;;;;;;;5078290;27;46207;-69
2022/02/20 13:47:13;;;;;;;;;3.75;1.00;;;;;;;;5087166;27;45419;-69
2022/02/20 13:49:45;;;;;;;;;0.75;0.75;;;;;;;;5079265;27;45322;-68
2022/02/20 13:52:10;;;;;;;;;3.25;1.00;;;;;;;;5078049;28;45264;-69
2022/02/20 13:54:36;;;;;;;;;1.25;0.75;;;;;;;;5078382;28;46021;-69
2022/02/20 13:57:01;;;;;;;;;2.50;0.25;;;;;;;;5077345;27;45357;-68
2022/02/20 13:59:28;;;;;;;;;0.25;0.25;;;;;;;;5079400;27;45594;-69
2022/02/20 14:02:00;;;;;;;;;0.75;0.75;;;;;;;;5065559;28;45393;-68
2022/02/20 14:04:34;;;;;;;;;1.25;0.50;;;;;;;;5061924;28;46210;-69
2022/02/20 14:07:10;;;;;;;;;2.67;1.00;;;;;;;;5089849;27;45365;-69
2022/02/20 14:09:39;;;;;;;;;5.00;0.25;;;;;;;;5061931;28;45357;-69
2022/02/20 14:12:13;;;;;;;;;1.25;0.25;;;;;;;;5075143;27;45318;-69
2022/02/20 14:14:39;;;;;;;;;5.00;0.75;;;;;;;;5076834;28;47129;-69
2022/02/20 14:17:04;;;;;;;;;2.25;1.00;;;;;;;;5076940;28;45591;-69
2022/02/20 14:19:29;;;;;;;;;0.50;0.50;;;;;;;;5084321;27;45295;-69
2022/02/20 14:21:59;;;;;;;;;1.00;1.00;;;;;;;;5077901;27;45461;-69
2022/02/20 14:24:25;;;;;;;;;0.50;0.50;;;;;;;;5076215;28;46221;-68
2022/02/20 14:26:50;;;;;;;;;2.25;1.00;;;;;;;;5077319;27;45488;-69
2022/02/20 14:29:22;;;;;;;;;0.75;0.25;;;;;;;;5076875;27;45441;-69
2022/02/20 14:31:47;;;;;;;;;1.00;0.50;;;;;;;;5084879;27;45363;-69
2022/02/20 14:34:19;;;;;;;;;3.50;0.25;;;;;;;;5077224;28;45580;-69
2022/02/20 14:36:44;;;;;;;;;4.25;1.00;;;;;;;;5061963;28;45545;-69
2022/02/20 14:39:10;;;;;;;;;1.00;0.50;;;;;;;;5078606;27;45733;-68